Terminal Aerodrome Forecast
Issued by NWS Pendleton, OR

Home | Current Version | Previous Version | Text Only | Print | Product List | Glossary On
Versions: 1 2 3 4 5 6 7 8 9 10 11 12 13 14 15 16 17
000
FTUS46 KPDT 210533
TAFPDT
TAF
KPDT 210533Z 2106/2206 21007KT P6SM SCT120
     FM211000 16006KT P6SM BKN090
     FM211400 15008KT 6SM -RA BR OVC040
     FM220100 22010KT P6SM OVC060=

USA.gov is the U.S. government's official web portal to all federal, state and local government web resources and services.